createdAt,value
2023-04-01T00:02:41.821Z,10.73
2023-04-01T00:07:44.591Z,11.63
2023-04-01T00:12:46.775Z,11.27
2023-04-01T00:17:49.432Z,11.23
2023-04-01T00:22:51.721Z,12.20
2023-04-01T00:27:54.032Z,12.65
2023-04-01T00:32:56.378Z,12.20
2023-04-01T00:37:58.659Z,12.48
2023-04-01T00:43:01.710Z,12.75
2023-04-01T00:48:10.072Z,12.80
2023-04-01T00:53:13.179Z,13.75
2023-04-01T00:58:19.238Z,13.95
2023-04-01T01:03:21.634Z,14.13
2023-04-01T01:08:51.971Z,13.27
2023-04-01T01:13:54.092Z,13.95
2023-04-01T01:19:21.340Z,12.52
2023-04-01T01:24:32.555Z,12.90
2023-04-01T01:35:02.392Z,12.48
2023-04-01T01:40:08.366Z,11.82
2023-04-01T01:45:14.252Z,12.90
2023-04-01T01:50:18.092Z,12.38
2023-04-01T01:55:32.218Z,12.30
2023-04-01T02:00:36.578Z,13.48
2023-04-01T02:05:39.089Z,20.23
2023-04-01T02:10:52.982Z,15.90
2023-04-01T02:16:01.428Z,12.77
2023-04-01T02:21:06.189Z,13.10
2023-04-01T02:26:11.415Z,13.10
2023-04-01T02:31:15.768Z,12.98
2023-04-01T02:36:18.840Z,12.73
2023-04-01T02:41:22.064Z,13.02
2023-04-01T02:46:24.419Z,13.90
2023-04-01T02:51:27.574Z,12.65
2023-04-01T02:56:29.751Z,13.70
2023-04-01T03:01:32.250Z,13.80
2023-04-01T03:06:34.601Z,13.20
2023-04-01T03:11:36.822Z,13.50
2023-04-01T03:16:39.299Z,12.73
2023-04-01T03:21:42.459Z,12.98
2023-04-01T03:26:44.645Z,13.10
2023-04-01T03:31:47.243Z,13.77
2023-04-01T03:36:49.444Z,13.35
2023-04-01T03:41:51.784Z,13.90
2023-04-01T03:46:54.012Z,13.60
2023-04-01T03:51:56.425Z,14.13
2023-04-01T03:56:59.337Z,13.73
2023-04-01T04:02:02.301Z,13.75
2023-04-01T04:07:05.006Z,13.98
2023-04-01T04:12:25.902Z,13.43
2023-04-01T04:17:28.496Z,12.98
2023-04-01T04:22:33.715Z,13.10
2023-04-01T04:27:37.117Z,12.60
2023-04-01T04:32:44.229Z,11.88
2023-04-01T04:37:47.897Z,12.32
2023-04-01T04:42:50.978Z,11.95
2023-04-01T04:47:53.240Z,11.65
2023-04-01T04:52:55.596Z,12.23
2023-04-01T04:57:58.083Z,11.30
2023-04-01T05:03:00.994Z,11.63
2023-04-01T05:08:03.435Z,11.63
2023-04-01T05:13:06.060Z,11.20
2023-04-01T05:18:08.596Z,10.80
2023-04-01T05:23:11.044Z,10.73
2023-04-01T05:28:13.582Z,10.50
2023-04-01T05:33:18.499Z,10.18
2023-04-01T05:38:21.040Z,10.15
2023-04-01T05:43:23.271Z,9.35
2023-04-01T05:48:26.692Z,38.30
2023-04-01T05:53:29.972Z,15.82
2023-04-01T05:58:32.473Z,16.85
2023-04-01T06:03:35.084Z,20.50
2023-04-01T06:08:37.420Z,20.30
2023-04-01T06:13:48.836Z,12.13
2023-04-01T06:24:17.216Z,17.02
2023-04-01T06:29:22.384Z,14.15
2023-04-01T06:34:52.436Z,19.75
2023-04-01T06:40:07.583Z,15.43
2023-04-01T06:45:36.926Z,14.52
2023-04-01T06:51:15.108Z,10.60
2023-04-01T06:56:43.881Z,9.93
2023-04-01T07:01:58.410Z,11.33
2023-04-01T07:07:21.230Z,7.18
2023-04-01T07:12:37.002Z,6.95
2023-04-01T07:17:57.738Z,7.38
2023-04-01T07:23:07.018Z,22.02
2023-04-01T07:28:35.338Z,9.10
2023-04-01T07:34:14.777Z,5.78
2023-04-01T07:39:20.317Z,5.90
2023-04-01T07:44:48.521Z,5.90
2023-04-01T07:49:53.511Z,6.30
2023-04-01T07:55:08.152Z,5.72
2023-04-01T08:00:25.749Z,5.55
2023-04-01T08:05:54.582Z,5.60
2023-04-01T08:11:18.586Z,4.90
2023-04-01T08:16:46.847Z,4.93
2023-04-01T08:21:59.423Z,5.30
2023-04-01T08:27:13.903Z,6.43
2023-04-01T08:37:29.875Z,4.75
2023-04-01T08:42:42.667Z,4.40
2023-04-01T08:48:20.668Z,3.80
2023-04-01T08:53:52.889Z,3.67
2023-04-01T08:59:09.269Z,4.00
2023-04-01T09:04:23.004Z,3.22
2023-04-01T09:10:08.232Z,2.80
2023-04-01T09:15:38.187Z,2.80
2023-04-01T09:20:52.832Z,2.90
2023-04-01T09:26:09.336Z,2.50
2023-04-01T09:31:24.120Z,2.17
2023-04-01T09:37:22.777Z,3.05
2023-04-01T09:42:55.967Z,3.00
2023-04-01T09:48:31.002Z,2.90
2023-04-01T09:54:01.118Z,2.60
2023-04-01T09:59:24.566Z,3.03
2023-04-01T10:05:07.781Z,1.17
2023-04-01T10:15:44.039Z,1.88
2023-04-01T10:21:13.726Z,6.53
2023-04-01T10:26:31.139Z,2.78
2023-04-01T10:32:44.951Z,2.53
2023-04-01T10:38:04.172Z,2.85
2023-04-01T10:43:41.349Z,3.42
2023-04-01T10:49:11.972Z,3.67
2023-04-01T10:54:35.832Z,5.18
2023-04-01T11:00:31.004Z,4.95
2023-04-01T11:06:06.714Z,5.03
2023-04-01T11:11:37.106Z,5.85
2023-04-01T11:16:49.685Z,3.10
2023-04-01T11:27:20.056Z,4.43
2023-04-01T11:33:02.071Z,5.00
2023-04-01T11:38:21.430Z,3.60
2023-04-01T11:43:42.093Z,3.28
2023-04-01T11:50:00.674Z,3.10
2023-04-01T11:55:27.612Z,5.82
2023-04-01T12:00:57.374Z,5.57
2023-04-01T12:06:11.430Z,6.43
2023-04-01T12:11:38.577Z,5.80
2023-04-01T12:17:03.491Z,4.70
2023-04-01T12:22:33.729Z,2.75
2023-04-01T12:27:55.075Z,2.10
2023-04-01T12:33:22.241Z,2.13
2023-04-01T12:38:59.198Z,2.63
2023-04-01T12:44:16.536Z,2.50
2023-04-01T12:49:40.412Z,3.55
2023-04-01T12:55:04.448Z,5.63
2023-04-01T13:00:45.725Z,3.25
2023-04-01T13:06:09.589Z,2.90
2023-04-01T13:11:49.397Z,2.53
2023-04-01T13:17:16.385Z,2.72
2023-04-01T13:22:44.999Z,2.78
2023-04-01T13:27:55.704Z,2.90
2023-04-01T13:33:17.611Z,3.40
2023-04-01T13:43:49.272Z,2.72
2023-04-01T13:49:06.839Z,2.57
2023-04-01T13:54:27.159Z,2.20
2023-04-01T13:59:47.471Z,1.75
2023-04-01T14:05:14.403Z,1.98
2023-04-01T14:10:49.880Z,2.88
2023-04-01T14:16:06.931Z,2.92
2023-04-01T14:21:23.789Z,2.90
2023-04-01T14:26:50.309Z,2.67
2023-04-01T14:31:58.556Z,2.60
2023-04-01T14:37:14.296Z,3.35
2023-04-01T14:42:28.557Z,3.58
2023-04-01T14:47:48.726Z,3.90
2023-04-01T14:52:58.968Z,4.15
2023-04-01T14:58:14.019Z,11.43
2023-04-01T15:03:28.122Z,4.43
2023-04-01T15:08:39.340Z,4.60
2023-04-01T15:14:02.620Z,4.60
2023-04-01T15:19:16.754Z,3.75
2023-04-01T15:24:31.470Z,4.47
2023-04-01T15:29:48.661Z,6.32
2023-04-01T15:35:09.661Z,5.97
2023-04-01T15:40:46.330Z,5.40
2023-04-01T15:46:09.836Z,4.97
2023-04-01T15:51:23.314Z,4.85
2023-04-01T15:56:29.447Z,5.10
2023-04-01T16:01:57.596Z,8.77
2023-04-01T16:07:22.843Z,5.72
2023-04-01T16:12:46.504Z,5.13
2023-04-01T16:18:03.758Z,5.40
2023-04-01T16:23:26.349Z,6.00
2023-04-01T16:28:41.427Z,6.03
2023-04-01T16:33:59.212Z,6.95
2023-04-01T16:39:23.194Z,7.20
2023-04-01T16:44:28.514Z,6.88
2023-04-01T16:49:38.723Z,6.40
2023-04-01T16:55:02.809Z,5.97
2023-04-01T17:00:20.324Z,5.97
2023-04-01T17:05:43.669Z,5.57
2023-04-01T17:10:51.718Z,5.68
2023-04-01T17:16:12.367Z,4.97
2023-04-01T17:21:32.477Z,4.95
2023-04-01T17:26:48.678Z,4.20
2023-04-01T17:32:19.814Z,4.30
2023-04-01T17:37:49.125Z,4.00
2023-04-01T17:43:00.105Z,4.00
2023-04-01T17:48:30.453Z,4.27
2023-04-01T17:53:36.805Z,4.55
2023-04-01T17:59:22.985Z,4.22
2023-04-01T18:04:31.350Z,4.60
2023-04-01T18:10:06.043Z,4.45
2023-04-01T18:15:32.727Z,5.15
2023-04-01T18:20:53.393Z,4.32
2023-04-01T18:26:06.100Z,4.18
2023-04-01T18:31:19.276Z,4.45
2023-04-01T18:36:43.352Z,4.57
2023-04-01T18:42:13.482Z,4.25
2023-04-01T18:47:34.263Z,4.68
2023-04-01T18:52:44.600Z,4.95
2023-04-01T18:58:00.005Z,5.13
2023-04-01T19:03:15.968Z,5.32
2023-04-01T19:08:30.588Z,6.22
2023-04-01T19:13:54.189Z,5.57
2023-04-01T19:19:03.330Z,5.90
2023-04-01T19:24:18.691Z,6.13
2023-04-01T19:29:55.052Z,5.75
2023-04-01T19:35:31.597Z,5.03
2023-04-01T19:40:37.076Z,6.05
2023-04-01T19:45:58.377Z,5.70
2023-04-01T19:51:12.399Z,5.40
2023-04-01T19:56:23.629Z,5.32
2023-04-01T20:01:44.953Z,5.40
2023-04-01T20:07:17.471Z,5.13
2023-04-01T20:12:56.659Z,5.13
2023-04-01T20:18:01.345Z,4.63
2023-04-01T20:23:09.032Z,4.53
2023-04-01T20:28:20.617Z,4.40
2023-04-01T20:33:50.163Z,4.57
2023-04-01T20:39:27.318Z,4.35
2023-04-01T20:44:50.572Z,4.10
2023-04-01T20:50:31.890Z,4.25
2023-04-01T20:55:54.456Z,4.20
2023-04-01T21:01:24.293Z,4.15
2023-04-01T21:06:47.422Z,4.05
2023-04-01T21:12:13.863Z,4.05
2023-04-01T21:17:34.483Z,4.38
2023-04-01T21:22:48.248Z,4.72
2023-04-01T21:28:11.956Z,4.40
2023-04-01T21:33:14.133Z,4.93
2023-04-01T21:38:25.277Z,4.97
2023-04-01T21:43:58.470Z,5.13
2023-04-01T21:49:38.423Z,5.22
2023-04-01T21:55:07.675Z,5.30
2023-04-01T22:00:20.016Z,4.80
2023-04-01T22:05:45.154Z,5.00
2023-04-01T22:11:09.109Z,4.60
2023-04-01T22:16:30.112Z,4.40
2023-04-01T22:22:02.551Z,4.27
2023-04-01T22:27:09.119Z,4.38
2023-04-01T22:32:18.844Z,5.13
2023-04-01T22:37:52.536Z,7.43
2023-04-01T22:42:59.046Z,3.50
2023-04-01T22:48:39.636Z,3.40
2023-04-01T22:54:00.023Z,3.30
2023-04-01T22:59:30.871Z,3.35
2023-04-01T23:04:38.861Z,3.28
2023-04-01T23:09:41.407Z,3.67
2023-04-01T23:14:54.449Z,3.42
2023-04-01T23:20:18.059Z,2.83
2023-04-01T23:25:26.329Z,3.10
2023-04-01T23:30:40.724Z,2.90
2023-04-01T23:35:57.050Z,2.92
2023-04-01T23:40:59.498Z,3.20
2023-04-01T23:46:05.008Z,3.15
2023-04-01T23:51:30.312Z,2.45
2023-04-01T23:56:54.987Z,2.70
